Time;durP1;ratioP1;P1;durP2;ratioP2;P2;SDS_P1;SDS_P2;PMS_P1;PMS_P2;Temp;Humidity;BMP_temperature;BMP_pressure;BME280_temperature;BME280_humidity;BME280_pressure;Samples;Min_cycle;Max_cycle;Signal;HPM_P1;HPM_P2
2023/05/12 00:01:33;;;;;;;;;;;;;;;19.67;53.23;101623.75;5049597;28;19917;-69
2023/05/12 00:03:58;;;;;;;;;;;;;;;19.67;52.95;101628.31;5051003;28;19939;-69
2023/05/12 00:06:23;;;;;;;;;;;;;;;19.66;52.96;101621.19;5053569;28;19913;-69
2023/05/12 00:08:49;;;;;;;;;;;;;;;19.66;53.06;101621.19;5052121;28;19920;-69
2023/05/12 00:11:14;;;;;;;;;;;;;;;19.65;52.77;101627.59;5058640;28;20432;-69
2023/05/12 00:13:39;;;;;;;;;;;;;;;19.65;53.17;101624.91;5048720;28;20452;-69
2023/05/12 00:16:05;;;;;;;;;;;;;;;19.64;53.04;101621.38;5051596;28;20370;-69
2023/05/12 00:18:30;;;;;;;;;;;;;;;19.64;53.07;101617.81;5051304;28;19928;-69
2023/05/12 00:20:55;;;;;;;;;;;;;;;19.64;53.09;101617.81;5049267;28;19984;-69
2023/05/12 00:23:21;;;;;;;;;;;;;;;19.63;52.96;101618.84;5053387;28;19939;-69
2023/05/12 00:25:46;;;;;;;;;;;;;;;19.62;53.06;101615.25;5050578;28;19917;-69
2023/05/12 00:28:11;;;;;;;;;;;;;;;19.61;53.14;101616.28;5047727;28;19913;-69
2023/05/12 00:30:37;;;;;;;;;;;;;;;19.62;53.00;101619.81;5050820;28;19913;-69
2023/05/12 00:33:02;;;;;;;;;;;;;;;19.61;52.76;101618.97;5053949;28;19957;-69
2023/05/12 00:35:27;;;;;;;;;;;;;;;19.60;53.00;101616.41;5049881;28;19912;-69
2023/05/12 00:37:52;;;;;;;;;;;;;;;19.60;53.06;101616.41;5055776;28;19968;-69
2023/05/12 00:40:18;;;;;;;;;;;;;;;19.60;53.02;101613.72;5050529;28;19924;-69
2023/05/12 00:42:43;;;;;;;;;;;;;;;19.59;52.88;101606.63;5052206;28;20401;-69
2023/05/12 00:45:09;;;;;;;;;;;;;;;19.58;52.90;101613.88;5051982;28;19992;-69
2023/05/12 00:47:34;;;;;;;;;;;;;;;19.58;52.98;101613.00;5049362;28;19924;-69
2023/05/12 00:49:59;;;;;;;;;;;;;;;19.57;52.88;101605.94;5049920;28;19913;-69
2023/05/12 00:52:24;;;;;;;;;;;;;;;19.57;53.09;101611.31;5032921;28;20377;-69
2023/05/12 00:54:49;;;;;;;;;;;;;;;19.55;53.05;101611.47;5031734;28;19921;-69
2023/05/12 00:57:14;;;;;;;;;;;;;;;19.56;52.80;101606.94;5048653;28;19996;-69
2023/05/12 00:59:40;;;;;;;;;;;;;;;19.55;52.78;101607.94;5043563;28;19960;-69
2023/05/12 01:02:06;;;;;;;;;;;;;;;19.54;53.04;101607.09;5047679;28;20354;-69
2023/05/12 01:04:31;;;;;;;;;;;;;;;19.53;52.86;101605.38;5043391;28;20734;-69
2023/05/12 01:07:09;;;;;;;;;;;;;;;19.53;52.71;101610.78;5034588;28;19923;-69
2023/05/12 01:09:34;;;;;;;;;;;;;;;19.52;52.74;101601.00;5044949;28;19917;-69
2023/05/12 01:11:59;;;;;;;;;;;;;;;19.53;52.95;101609.94;5054539;28;19921;-69
2023/05/12 01:14:25;;;;;;;;;;;;;;;19.51;52.82;101593.91;5052827;28;19916;-69
2023/05/12 01:16:52;;;;;;;;;;;;;;;19.51;52.92;101599.31;5052879;28;19913;-69
2023/05/12 01:19:29;;;;;;;;;;;;;;;19.51;52.80;101593.91;5051299;28;19917;-69
2023/05/12 01:21:54;;;;;;;;;;;;;;;19.50;52.77;101600.31;5053018;28;19928;-69
2023/05/12 01:24:19;;;;;;;;;;;;;;;19.51;52.70;101603.88;5052324;28;19913;-69
2023/05/12 01:26:45;;;;;;;;;;;;;;;19.49;52.75;101595.91;5037516;28;19913;-69
2023/05/12 01:29:10;;;;;;;;;;;;;;;19.48;52.88;101588.81;5051151;28;20294;-69
2023/05/12 01:31:35;;;;;;;;;;;;;;;19.48;53.02;101596.91;5049007;28;19943;-69
2023/05/12 01:34:00;;;;;;;;;;;;;;;19.47;52.74;101596.06;5046523;28;19988;-68
2023/05/12 01:36:25;;;;;;;;;;;;;;;19.48;52.91;101599.63;5052694;28;19917;-69
2023/05/12 01:38:50;;;;;;;;;;;;;;;19.46;52.73;101590.84;5058966;28;19917;-69
2023/05/12 01:41:16;;;;;;;;;;;;;;;19.46;52.70;101596.25;5050230;28;19917;-69
2023/05/12 01:43:41;;;;;;;;;;;;;;;19.45;52.62;101597.22;5058054;28;20371;-69
2023/05/12 01:46:06;;;;;;;;;;;;;;;19.45;52.66;101595.41;5052751;28;19948;-69
2023/05/12 01:48:31;;;;;;;;;;;;;;;19.45;52.67;101594.53;5052967;28;19952;-69
2023/05/12 01:50:58;;;;;;;;;;;;;;;19.45;52.97;101599.91;5054181;28;19983;-69
2023/05/12 01:53:23;;;;;;;;;;;;;;;19.44;52.70;101600.94;5039341;28;20313;-70
2023/05/12 01:55:48;;;;;;;;;;;;;;;19.43;52.67;101602.78;5051924;28;19913;-69
2023/05/12 01:58:14;;;;;;;;;;;;;;;19.43;52.97;101599.25;5053146;28;19916;-69
2023/05/12 02:00:39;;;;;;;;;;;;;;;19.43;52.86;101596.53;5057520;28;19913;-69
2023/05/12 02:03:04;;;;;;;;;;;;;;;19.42;52.68;101593.00;5050554;28;19917;-69
2023/05/12 02:05:30;;;;;;;;;;;;;;;19.41;52.75;101594.00;5060623;28;19913;-69
2023/05/12 02:07:55;;;;;;;;;;;;;;;19.41;52.61;101599.41;5052918;28;20004;-69
2023/05/12 02:10:20;;;;;;;;;;;;;;;19.41;53.08;101595.84;5050772;28;20317;-69
2023/05/12 02:12:46;;;;;;;;;;;;;;;19.40;52.73;101605.78;5053905;28;19928;-69
2023/05/12 02:15:11;;;;;;;;;;;;;;;19.40;52.94;101607.63;5053547;28;19925;-69
2023/05/12 02:17:36;;;;;;;;;;;;;;;19.40;52.70;101602.25;5051531;28;19966;-69
2023/05/12 02:20:01;;;;;;;;;;;;;;;19.39;52.44;101603.25;5050025;28;20037;-69
2023/05/12 02:22:26;;;;;;;;;;;;;;;19.38;52.97;101598.88;5052464;28;19947;-69
2023/05/12 02:24:51;;;;;;;;;;;;;;;19.37;52.94;101603.41;5050767;28;20278;-69
2023/05/12 02:27:17;;;;;;;;;;;;;;;19.38;52.61;101598.88;5056182;28;19916;-69
2023/05/12 02:29:42;;;;;;;;;;;;;;;19.37;52.78;101600.72;5052502;28;19917;-69
2023/05/12 02:32:07;;;;;;;;;;;;;;;19.37;52.76;101603.41;5057820;28;19928;-69
2023/05/12 02:34:32;;;;;;;;;;;;;;;19.37;52.76;101603.41;5054626;28;19922;-69
2023/05/12 02:36:57;;;;;;;;;;;;;;;19.35;52.89;101597.31;5050150;28;19921;-69
2023/05/12 02:39:23;;;;;;;;;;;;;;;19.36;52.64;101600.84;5055457;28;19959;-69
2023/05/12 02:41:48;;;;;;;;;;;;;;;19.36;52.92;101595.47;5051230;28;19917;-69
2023/05/12 02:44:15;;;;;;;;;;;;;;;19.35;52.59;101599.16;5049700;28;19917;-69
2023/05/12 02:46:40;;;;;;;;;;;;;;;19.34;52.66;101600.19;5051125;28;20334;-69
2023/05/12 02:49:05;;;;;;;;;;;;;;;19.33;52.61;101599.34;5052988;28;19917;-69
2023/05/12 02:51:30;;;;;;;;;;;;;;;19.33;52.70;101599.34;5051060;28;19980;-69
2023/05/12 02:53:56;;;;;;;;;;;;;;;19.33;52.86;101599.34;5054883;28;19913;-69
2023/05/12 02:56:21;;;;;;;;;;;;;;;19.32;52.74;101594.91;5052091;28;19924;-69
2023/05/12 02:58:46;;;;;;;;;;;;;;;19.32;52.61;101594.06;5056854;28;20620;-69
2023/05/12 03:01:11;;;;;;;;;;;;;;;19.31;52.82;101593.22;5057015;28;19924;-69
2023/05/12 03:03:37;;;;;;;;;;;;;;;19.31;52.59;101590.53;5050796;28;20259;-69
2023/05/12 03:06:03;;;;;;;;;;;;;;;19.32;52.88;101588.69;5054808;28;19913;-69
2023/05/12 03:08:28;;;;;;;;;;;;;;;19.30;52.74;101588.84;5050128;28;19917;-69
2023/05/12 03:10:53;;;;;;;;;;;;;;;19.31;52.75;101592.38;5050123;28;19920;-69
2023/05/12 03:13:18;;;;;;;;;;;;;;;19.30;52.84;101588.00;5052720;28;19983;-69
2023/05/12 03:15:44;;;;;;;;;;;;;;;19.29;52.61;101581.78;5050854;28;19917;-69
2023/05/12 03:18:09;;;;;;;;;;;;;;;19.29;52.73;101580.94;5050017;28;19913;-69
2023/05/12 03:20:34;;;;;;;;;;;;;;;19.28;52.88;101577.34;5050792;28;19936;-69
2023/05/12 03:22:59;;;;;;;;;;;;;;;19.28;52.80;101582.75;5052818;28;19936;-69
2023/05/12 03:25:24;;;;;;;;;;;;;;;19.28;52.61;101581.91;5050556;28;19976;-69
2023/05/12 03:27:50;;;;;;;;;;;;;;;19.27;52.58;101581.06;5056957;28;19916;-69
2023/05/12 03:30:15;;;;;;;;;;;;;;;19.26;52.76;101573.97;5038561;28;20045;-69
2023/05/12 03:32:41;;;;;;;;;;;;;;;19.27;52.53;101574.81;5055045;28;19970;-69
2023/05/12 03:35:06;;;;;;;;;;;;;;;19.27;52.60;101577.53;5051303;28;19921;-69
2023/05/12 03:37:31;;;;;;;;;;;;;;;19.25;52.80;101572.28;5049917;28;19917;-69
2023/05/12 03:39:57;;;;;;;;;;;;;;;19.25;52.86;101576.84;5051735;28;19921;-69
2023/05/12 03:42:25;;;;;;;;;;;;;;;19.25;52.66;101577.69;5049973;28;19920;-69
2023/05/12 03:44:51;;;;;;;;;;;;;;;19.24;52.86;101578.66;5047973;28;19917;-69
2023/05/12 03:47:16;;;;;;;;;;;;;;;19.24;52.78;101581.34;5050116;28;19999;-69
2023/05/12 03:49:41;;;;;;;;;;;;;;;19.23;52.80;101585.91;5054436;28;19913;-69
2023/05/12 03:52:06;;;;;;;;;;;;;;;19.24;52.80;101586.75;5050412;28;19944;-69
2023/05/12 03:54:31;;;;;;;;;;;;;;;19.23;52.60;101585.06;5056487;28;19952;-69
2023/05/12 03:56:57;;;;;;;;;;;;;;;19.22;52.75;101580.69;5051907;28;19977;-69
2023/05/12 03:59:22;;;;;;;;;;;;;;;19.22;52.86;101588.78;5057536;28;20330;-69
2023/05/12 04:01:47;;;;;;;;;;;;;;;19.22;52.59;101586.06;5054511;28;19917;-69
2023/05/12 04:04:12;;;;;;;;;;;;;;;19.22;52.65;101596.84;5049249;28;19948;-68
2023/05/12 04:06:37;;;;;;;;;;;;;;;19.22;52.89;101586.06;5053280;28;19917;-69
2023/05/12 04:09:02;;;;;;;;;;;;;;;19.21;52.61;101587.94;5048206;28;19928;-69
2023/05/12 04:11:28;;;;;;;;;;;;;;;19.20;52.63;101588.94;5050304;28;19948;-69
2023/05/12 04:13:54;;;;;;;;;;;;;;;19.20;52.57;101588.09;5049605;28;19921;-69
2023/05/12 04:16:19;;;;;;;;;;;;;;;19.20;52.76;101599.72;5051638;28;19928;-69
2023/05/12 04:18:44;;;;;;;;;;;;;;;19.20;52.79;101596.19;5053152;28;19966;-69
2023/05/12 04:21:10;;;;;;;;;;;;;;;19.20;52.60;101599.72;5055129;28;20003;-69
2023/05/12 04:23:35;;;;;;;;;;;;;;;19.19;52.70;101595.31;5053023;28;20000;-69
2023/05/12 04:26:02;;;;;;;;;;;;;;;19.19;52.50;101603.38;5049798;28;19913;-69
2023/05/12 04:28:27;;;;;;;;;;;;;;;19.19;52.76;101591.75;5055073;28;19917;-69
2023/05/12 04:30:52;;;;;;;;;;;;;;;19.19;52.67;101605.25;5050376;28;19968;-69
2023/05/12 04:33:17;;;;;;;;;;;;;;;19.18;52.72;101595.47;5053053;28;19924;-69
2023/05/12 04:35:43;;;;;;;;;;;;;;;19.18;52.71;101607.09;5049628;28;19936;-69
2023/05/12 04:38:08;;;;;;;;;;;;;;;19.18;52.83;101611.66;5049466;28;19917;-69
2023/05/12 04:40:33;;;;;;;;;;;;;;;19.18;52.69;101606.25;5049492;28;19917;-69
2023/05/12 04:42:58;;;;;;;;;;;;;;;19.18;52.79;101612.50;5048619;28;19967;-70
2023/05/12 04:45:23;;;;;;;;;;;;;;;19.18;52.46;101614.34;5048331;28;19963;-70
2023/05/12 04:47:49;;;;;;;;;;;;;;;19.18;52.77;101607.09;5052610;28;19928;-70
2023/05/12 04:50:14;;;;;;;;;;;;;;;19.18;52.84;101612.50;5058927;28;19928;-70
2023/05/12 04:52:39;;;;;;;;;;;;;;;19.18;52.89;101617.88;5051847;28;19913;-70
2023/05/12 04:55:05;;;;;;;;;;;;;;;19.19;52.78;101624.13;5043378;28;19921;-70
2023/05/12 04:57:30;;;;;;;;;;;;;;;19.20;52.92;101625.84;5056292;28;19920;-69
2023/05/12 04:59:57;;;;;;;;;;;;;;;19.19;53.01;101633.03;5062266;28;19917;-70
2023/05/12 05:02:22;;;;;;;;;;;;;;;19.19;52.97;101633.03;5056530;28;19953;-70
2023/05/12 05:04:47;;;;;;;;;;;;;;;19.19;52.89;101646.53;5051794;28;19924;-70
2023/05/12 05:07:13;;;;;;;;;;;;;;;19.20;53.17;101650.09;5052113;28;19923;-73
2023/05/12 05:09:39;;;;;;;;;;;;;;;19.20;53.13;101653.63;5055022;28;19927;-72
2023/05/12 05:12:04;;;;;;;;;;;;;;;19.20;53.15;101653.63;5057465;28;19929;-73
2023/05/12 05:14:29;;;;;;;;;;;;;;;19.21;53.65;101662.56;5058460;28;19921;-73
2023/05/12 05:16:54;;;;;;;;;;;;;;;19.21;53.71;101660.72;5057583;28;19917;-72
2023/05/12 05:19:19;;;;;;;;;;;;;;;19.22;53.52;101661.56;5054437;28;19971;-73
2023/05/12 05:21:45;;;;;;;;;;;;;;;19.23;53.57;101668.63;5061152;28;19916;-72
2023/05/12 05:24:10;;;;;;;;;;;;;;;19.23;53.62;101661.41;5059587;28;19920;-71
2023/05/12 05:26:36;;;;;;;;;;;;;;;19.23;53.98;101669.47;5051956;28;19917;-72
2023/05/12 05:29:01;;;;;;;;;;;;;;;19.25;53.70;101682.00;5062712;28;19917;-73
2023/05/12 05:31:27;;;;;;;;;;;;;;;19.25;54.07;101673.91;5054923;28;19953;-73
2023/05/12 05:33:52;;;;;;;;;;;;;;;19.25;53.96;101677.44;5055364;28;19931;-69
2023/05/12 05:36:18;;;;;;;;;;;;;;;19.25;53.94;101674.75;5053889;28;19913;-72
2023/05/12 05:38:43;;;;;;;;;;;;;;;19.25;54.14;101680.13;5056627;28;19996;-71
2023/05/12 05:41:08;;;;;;;;;;;;;;;19.25;54.15;101672.03;5052913;28;20343;-71
2023/05/12 05:43:33;;;;;;;;;;;;;;;19.26;54.00;101675.59;5035831;28;19944;-71
2023/05/12 05:45:58;;;;;;;;;;;;;;;19.26;54.22;101679.13;5052342;28;19960;-70
2023/05/12 05:48:24;;;;;;;;;;;;;;;19.28;54.20;101682.50;5056313;28;19967;-69
2023/05/12 05:50:49;;;;;;;;;;;;;;;19.27;54.41;101680.81;5039354;28;19913;-70
2023/05/12 05:53:17;;;;;;;;;;;;;;;19.28;54.19;101689.75;5051663;28;19921;-70
2023/05/12 05:55:42;;;;;;;;;;;;;;;19.28;54.26;101693.28;5058894;28;19912;-70
2023/05/12 05:58:07;;;;;;;;;;;;;;;19.29;54.27;101699.56;5052927;28;19923;-70
2023/05/12 06:00:32;;;;;;;;;;;;;;;19.29;54.25;101700.41;5056056;28;19989;-71
2023/05/12 06:02:57;;;;;;;;;;;;;;;19.30;54.51;101699.41;5053924;28;19913;-70
2023/05/12 06:05:23;;;;;;;;;;;;;;;19.31;54.42;101697.53;5053781;28;19923;-71
2023/05/12 06:07:48;;;;;;;;;;;;;;;19.30;54.31;101698.56;5052039;28;19911;-71
2023/05/12 06:10:13;;;;;;;;;;;;;;;19.29;54.50;101697.72;5054036;28;19963;-70
2023/05/12 06:12:39;;;;;;;;;;;;;;;19.32;54.29;101702.78;5053714;28;19931;-70
2023/05/12 06:15:05;;;;;;;;;;;;;;;19.31;54.29;101706.47;5053913;28;20036;-70
2023/05/12 06:17:30;;;;;;;;;;;;;;;19.33;54.43;101714.44;5038909;28;19923;-70
2023/05/12 06:19:55;;;;;;;;;;;;;;;19.33;54.57;101711.75;5054725;28;19916;-72
2023/05/12 06:22:21;;;;;;;;;;;;;;;19.33;54.32;101714.44;5053878;28;19913;-72
2023/05/12 06:24:46;;;;;;;;;;;;;;;19.33;54.28;101712.59;5053060;28;19953;-73
2023/05/12 06:27:11;;;;;;;;;;;;;;;19.34;54.18;101713.44;5045588;28;20120;-73
2023/05/12 06:29:36;;;;;;;;;;;;;;;19.34;54.46;101718.81;5055022;28;19937;-71
2023/05/12 06:32:02;;;;;;;;;;;;;;;19.35;54.50;101724.06;5051087;28;19943;-72
2023/05/12 06:34:28;;;;;;;;;;;;;;;19.35;54.16;101721.34;5051062;28;19947;-73
2023/05/12 06:36:53;;;;;;;;;;;;;;;19.35;54.24;101725.91;5054511;28;19913;-73
2023/05/12 06:39:18;;;;;;;;;;;;;;;18.82;54.38;101643.06;5056291;28;19917;-71
2023/05/12 06:41:43;;;;;;;;;;;;;;;19.35;54.44;101726.75;5046470;28;19943;-71
2023/05/12 06:44:11;;;;;;;;;;;;;;;19.35;54.08;101732.13;5057581;28;19921;-71
2023/05/12 06:46:37;;;;;;;;;;;;;;;19.36;54.03;101738.38;5052513;28;19924;-71
2023/05/12 06:49:02;;;;;;;;;;;;;;;19.37;54.27;101745.47;5054286;28;19912;-71
2023/05/12 06:51:27;;;;;;;;;;;;;;;19.37;54.05;101743.63;5054975;28;19920;-71
2023/05/12 06:53:52;;;;;;;;;;;;;;;19.36;54.26;101741.06;5051010;28;20317;-71
2023/05/12 06:56:17;;;;;;;;;;;;;;;19.36;53.91;101743.78;5057548;28;19997;-71
2023/05/12 06:58:43;;;;;;;;;;;;;;;19.37;53.83;101745.47;5050535;28;19924;-71
2023/05/12 07:01:08;;;;;;;;;;;;;;;19.37;54.12;101751.72;5050388;28;19917;-71
2023/05/12 07:03:33;;;;;;;;;;;;;;;19.38;54.03;101744.47;5051958;28;19977;-71
2023/05/12 07:05:58;;;;;;;;;;;;;;;19.38;53.76;101755.28;5052155;28;19927;-71
2023/05/12 07:08:24;;;;;;;;;;;;;;;19.38;53.96;101749.88;5047123;28;19940;-71
2023/05/12 07:10:49;;;;;;;;;;;;;;;19.39;54.01;101756.97;5060908;28;19957;-71
2023/05/12 07:13:14;;;;;;;;;;;;;;;19.38;53.66;101745.31;5052991;28;19956;-71
2023/05/12 07:15:40;;;;;;;;;;;;;;;19.39;53.98;101754.25;5057617;28;19940;-71
2023/05/12 07:18:05;;;;;;;;;;;;;;;19.39;53.82;101756.97;5058767;28;19957;-71
2023/05/12 07:20:30;;;;;;;;;;;;;;;19.39;53.78;101752.41;5050831;28;19924;-71
2023/05/12 07:22:55;;;;;;;;;;;;;;;19.40;54.01;101761.34;5058274;28;19909;-72
2023/05/12 07:25:20;;;;;;;;;;;;;;;19.39;53.76;101755.09;5036086;28;19939;-70
2023/05/12 07:27:46;;;;;;;;;;;;;;;19.41;53.86;101773.81;5054779;28;20385;-70
2023/05/12 07:30:11;;;;;;;;;;;;;;;19.40;53.78;101767.59;5050654;28;19963;-69
2023/05/12 07:32:36;;;;;;;;;;;;;;;19.40;53.74;101764.88;5056848;28;20403;-71
2023/05/12 07:35:02;;;;;;;;;;;;;;;19.39;53.93;101760.50;5056290;28;19956;-71
2023/05/12 07:37:27;;;;;;;;;;;;;;;19.40;53.94;101770.28;5057572;28;19917;-71
2023/05/12 07:39:53;;;;;;;;;;;;;;;19.41;53.93;101773.81;5036959;28;19924;-70
2023/05/12 07:42:18;;;;;;;;;;;;;;;19.42;54.17;101764.75;5033236;28;19924;-72
2023/05/12 07:44:43;;;;;;;;;;;;;;;19.41;54.17;101769.31;5060942;28;19917;-71
2023/05/12 07:47:08;;;;;;;;;;;;;;;19.42;54.02;101775.53;5042691;28;19975;-71
2023/05/12 07:49:34;;;;;;;;;;;;;;;19.41;54.05;101769.31;5044433;28;19912;-71
2023/05/12 07:51:59;;;;;;;;;;;;;;;19.41;53.87;101777.41;5053889;28;20024;-71
2023/05/12 07:54:24;;;;;;;;;;;;;;;19.42;54.16;101775.53;5049911;28;19917;-71
2023/05/12 07:56:50;;;;;;;;;;;;;;;19.43;54.08;101777.22;5038129;28;19917;-71
2023/05/12 07:59:15;;;;;;;;;;;;;;;19.43;54.12;101782.63;5052333;28;19920;-71
2023/05/12 08:01:40;;;;;;;;;;;;;;;19.43;53.98;101777.22;5052162;28;20286;-71
2023/05/12 08:04:05;;;;;;;;;;;;;;;19.43;54.15;101782.63;5049912;28;19917;-70
2023/05/12 08:06:31;;;;;;;;;;;;;;;19.43;54.24;101782.63;5052811;28;19917;-70
2023/05/12 08:08:57;;;;;;;;;;;;;;;19.44;53.96;101787.00;5050065;28;19944;-70
2023/05/12 08:11:22;;;;;;;;;;;;;;;19.44;54.01;101792.41;5056758;28;20853;-71
2023/05/12 08:13:47;;;;;;;;;;;;;;;19.44;54.29;101790.56;5052183;28;20378;-71
2023/05/12 08:16:13;;;;;;;;;;;;;;;19.44;54.11;101795.94;5050563;28;20484;-70
2023/05/12 08:18:38;;;;;;;;;;;;;;;19.45;54.02;101796.78;5055085;28;19913;-71
2023/05/12 08:21:03;;;;;;;;;;;;;;;19.45;54.02;101805.75;5040420;28;19916;-70
2023/05/12 08:23:28;;;;;;;;;;;;;;;19.46;54.06;101803.91;5048719;28;20768;-70
2023/05/12 08:25:53;;;;;;;;;;;;;;;19.47;54.00;101802.91;5049241;28;19921;-70
2023/05/12 08:28:18;;;;;;;;;;;;;;;19.46;54.26;101804.75;5049929;28;19921;-71
2023/05/12 08:30:44;;;;;;;;;;;;;;;19.48;54.09;101804.59;5054158;28;19952;-71
2023/05/12 08:33:10;;;;;;;;;;;;;;;19.47;54.24;101803.75;5032405;28;19972;-71
2023/05/12 08:35:35;;;;;;;;;;;;;;;19.48;54.10;101805.44;5032366;28;19985;-70
2023/05/12 08:38:00;;;;;;;;;;;;;;;19.48;54.20;101802.75;5033975;28;19920;-71
2023/05/12 08:40:25;;;;;;;;;;;;;;;19.48;54.34;101813.53;5058504;28;19921;-71
2023/05/12 08:42:57;;;;;;;;;;;;;;;19.48;54.13;101813.53;5036283;28;19920;-71
2023/05/12 08:45:22;;;;;;;;;;;;;;;19.49;54.28;101811.69;5057618;28;19956;-71
2023/05/12 08:47:48;;;;;;;;;;;;;;;19.49;54.29;101812.53;5049500;28;19997;-70
2023/05/12 08:50:13;;;;;;;;;;;;;;;19.51;54.25;101816.94;5041670;28;19955;-71
2023/05/12 08:52:38;;;;;;;;;;;;;;;19.51;54.32;101820.50;5055311;28;19925;-71
2023/05/12 08:55:03;;;;;;;;;;;;;;;19.51;54.17;101817.78;5044830;28;19916;-70
2023/05/12 08:57:29;;;;;;;;;;;;;;;19.52;54.36;101822.19;5057375;28;19925;-72
2023/05/12 08:59:55;;;;;;;;;;;;;;;19.52;54.30;101824.88;5040445;28;19917;-72
2023/05/12 09:02:21;;;;;;;;;;;;;;;19.52;54.15;101822.19;5034651;28;19932;-71
2023/05/12 09:04:47;;;;;;;;;;;;;;;19.53;54.31;101820.31;5046889;28;19916;-72
2023/05/12 09:07:12;;;;;;;;;;;;;;;19.53;54.24;101813.06;5051330;28;20420;-72
2023/05/12 09:09:38;;;;;;;;;;;;;;;19.54;54.24;101822.00;5035583;28;19917;-71
2023/05/12 09:12:03;;;;;;;;;;;;;;;19.55;54.05;101821.03;5043101;28;19916;-72
2023/05/12 09:14:28;;;;;;;;;;;;;;;19.56;54.28;101828.13;5033471;28;20039;-71
2023/05/12 09:17:00;;;;;;;;;;;;;;;19.56;54.12;101837.06;5039511;28;19920;-72
2023/05/12 09:19:25;;;;;;;;;;;;;;;19.56;54.31;101834.38;5033040;28;19914;-71
2023/05/12 09:21:51;;;;;;;;;;;;;;;19.57;54.49;101829.81;5049721;28;19924;-71
2023/05/12 09:24:16;;;;;;;;;;;;;;;19.57;54.45;101835.22;5027921;28;19925;-73
2023/05/12 09:26:45;;;;;;;;;;;;;;;19.58;54.12;101834.19;5053600;28;19920;-72
2023/05/12 09:29:10;;;;;;;;;;;;;;;19.58;54.26;101826.09;5032300;28;19913;-71
2023/05/12 09:31:36;;;;;;;;;;;;;;;19.59;54.37;101834.06;5043986;28;19917;-69
2023/05/12 09:34:06;;;;;;;;;;;;;;;19.60;54.18;101835.75;5037542;28;19921;-70
2023/05/12 09:36:32;;;;;;;;;;;;;;;19.60;54.48;101833.06;5057011;28;19921;-69
2023/05/12 09:39:05;;;;;;;;;;;;;;;19.61;54.51;101836.63;5046066;28;19913;-69
2023/05/12 09:41:37;;;;;;;;;;;;;;;19.62;54.62;101839.19;5056450;28;19924;-69
2023/05/12 09:44:03;;;;;;;;;;;;;;;19.63;54.54;101840.91;5048001;28;19919;-70
2023/05/12 09:46:28;;;;;;;;;;;;;;;19.63;54.41;101838.19;5057508;28;19921;-69
2023/05/12 09:48:54;;;;;;;;;;;;;;;19.65;54.66;101846.13;5052634;28;19912;-69
2023/05/12 09:51:19;;;;;;;;;;;;;;;19.65;54.50;101846.13;5036700;28;19969;-70
2023/05/12 09:53:45;;;;;;;;;;;;;;;19.65;54.47;101838.88;5050734;28;19960;-69
2023/05/12 09:56:12;;;;;;;;;;;;;;;19.66;54.86;101845.97;5055348;28;19917;-70
2023/05/12 09:58:38;;;;;;;;;;;;;;;19.67;54.48;101838.75;5051645;28;19913;-71
2023/05/12 10:01:03;;;;;;;;;;;;;;;19.68;54.73;101837.75;5047286;28;19916;-71
2023/05/12 10:03:29;;;;;;;;;;;;;;;19.68;54.62;101835.88;5054809;28;19955;-70
2023/05/12 10:05:57;;;;;;;;;;;;;;;19.70;54.69;101838.44;5045953;28;19917;-70
2023/05/12 10:08:28;;;;;;;;;;;;;;;19.70;54.38;101836.56;5057243;28;19933;-70
2023/05/12 10:10:54;;;;;;;;;;;;;;;19.70;54.50;101839.28;5048499;28;20378;-71
2023/05/12 10:13:19;;;;;;;;;;;;;;;19.72;54.61;101839.13;5048680;28;19936;-71
2023/05/12 10:15:46;;;;;;;;;;;;;;;19.72;54.44;101840.00;5050249;28;20382;-71
2023/05/12 10:18:11;;;;;;;;;;;;;;;19.72;54.29;101837.28;5051248;28;19913;-71
2023/05/12 10:20:36;;;;;;;;;;;;;;;19.75;54.56;101846.06;5034916;28;19920;-70
2023/05/12 10:23:02;;;;;;;;;;;;;;;19.75;54.41;101849.59;5055553;28;19920;-70
2023/05/12 10:25:27;;;;;;;;;;;;;;;19.77;54.36;101844.09;5046865;28;19913;-70
2023/05/12 10:27:53;;;;;;;;;;;;;;;19.78;54.34;101849.31;5058622;28;19925;-71
2023/05/12 10:30:18;;;;;;;;;;;;;;;19.77;54.59;101847.63;5040963;28;19926;-71
2023/05/12 10:32:43;;;;;;;;;;;;;;;19.79;54.32;101848.31;5036596;28;19941;-71
2023/05/12 10:35:09;;;;;;;;;;;;;;;19.80;54.68;101851.88;5057544;28;20448;-71
2023/05/12 10:37:34;;;;;;;;;;;;;;;19.79;54.62;101845.59;5051875;28;19981;-72
2023/05/12 10:40:02;;;;;;;;;;;;;;;19.80;54.40;101849.19;5055417;28;19939;-71
2023/05/12 10:42:27;;;;;;;;;;;;;;;19.80;54.59;101846.47;5044264;28;20290;-71
2023/05/12 10:44:52;;;;;;;;;;;;;;;19.81;54.59;101850.88;5031900;28;19924;-71
2023/05/12 10:47:18;;;;;;;;;;;;;;;19.81;54.45;101849.03;5055988;28;19921;-71
2023/05/12 10:49:43;;;;;;;;;;;;;;;19.82;54.58;101845.31;5052676;28;19959;-71
2023/05/12 10:52:12;;;;;;;;;;;;;;;19.84;54.33;101845.19;5048879;28;19917;-71
2023/05/12 10:54:44;;;;;;;;;;;;;;;19.85;54.28;101834.22;5036626;28;20378;-71
2023/05/12 10:57:13;;;;;;;;;;;;;;;19.87;54.50;101842.16;5038483;28;19917;-71
2023/05/12 10:59:51;;;;;;;;;;;;;;;19.87;54.27;101839.47;5044260;28;19923;-71
2023/05/12 11:02:17;;;;;;;;;;;;;;;19.87;54.46;101837.59;5040869;28;19917;-71
2023/05/12 11:04:58;;;;;;;;;;;;;;;19.88;54.51;101842.03;5049709;28;19953;-70
2023/05/12 11:07:28;;;;;;;;;;;;;;;19.89;54.56;101840.16;5057214;28;19917;-70
2023/05/12 11:09:53;;;;;;;;;;;;;;;19.90;54.17;101844.56;5050532;28;19935;-70
2023/05/12 11:12:19;;;;;;;;;;;;;;;19.90;54.18;101840.00;5044877;28;20453;-70
2023/05/12 11:14:45;;;;;;;;;;;;;;;19.91;54.41;101841.69;5035850;28;19931;-70
2023/05/12 11:17:10;;;;;;;;;;;;;;;19.93;54.38;101844.25;5051863;28;19925;-70
2023/05/12 11:19:36;;;;;;;;;;;;;;;19.93;54.25;101841.56;5050137;28;19966;-71
2023/05/12 11:22:08;;;;;;;;;;;;;;;19.94;54.32;101841.41;5034449;28;19936;-70
2023/05/12 11:24:33;;;;;;;;;;;;;;;19.95;54.51;101843.09;5051581;28;19917;-70
2023/05/12 11:26:59;;;;;;;;;;;;;;;19.97;54.51;101849.19;5052745;28;20383;-70
2023/05/12 11:29:24;;;;;;;;;;;;;;;19.98;54.32;101850.03;5055748;28;19979;-70
2023/05/12 11:31:49;;;;;;;;;;;;;;;20.01;54.57;101848.88;5032506;28;19921;-70
2023/05/12 11:34:15;;;;;;;;;;;;;;;20.02;54.50;101851.44;5057067;28;19924;-70
2023/05/12 11:36:41;;;;;;;;;;;;;;;20.05;54.53;101842.16;5053553;28;19917;-70
2023/05/12 11:39:11;;;;;;;;;;;;;;;20.05;54.19;101844.88;5049135;28;19944;-71
2023/05/12 11:41:37;;;;;;;;;;;;;;;20.06;54.40;101842.03;5053618;28;19925;-71
2023/05/12 11:44:11;;;;;;;;;;;;;;;20.08;54.30;101848.09;5050411;28;19936;-71
2023/05/12 11:46:36;;;;;;;;;;;;;;;20.10;54.48;101842.56;5033715;28;19953;-71
2023/05/12 11:49:02;;;;;;;;;;;;;;;20.11;54.31;101845.13;5048417;28;19913;-71
2023/05/12 11:51:28;;;;;;;;;;;;;;;20.13;54.26;101837.69;5054479;28;19913;-70
2023/05/12 11:53:53;;;;;;;;;;;;;;;20.14;54.33;101842.13;5052166;28;19924;-71
2023/05/12 11:56:20;;;;;;;;;;;;;;;20.15;54.42;101841.09;5034977;28;20512;-71
2023/05/12 11:58:53;;;;;;;;;;;;;;;19.86;54.26;101789.19;5052233;28;19921;-70
2023/05/12 12:01:18;;;;;;;;;;;;;;;20.16;54.26;101842.78;5036622;28;19924;-71
2023/05/12 12:03:45;;;;;;;;;;;;;;;20.17;54.24;101840.94;5040027;28;19925;-71
2023/05/12 12:06:10;;;;;;;;;;;;;;;20.17;54.52;101847.19;5048582;28;19913;-70
2023/05/12 12:08:39;;;;;;;;;;;;;;;20.17;54.45;101847.19;5039636;28;20362;-70
2023/05/12 12:11:06;;;;;;;;;;;;;;;20.19;54.50;101852.44;5049364;28;19917;-71
2023/05/12 12:13:31;;;;;;;;;;;;;;;20.18;54.46;101854.31;5033594;28;19925;-71
2023/05/12 12:15:58;;;;;;;;;;;;;;;20.19;54.38;101856.00;5050779;28;20153;-71
2023/05/12 12:18:23;;;;;;;;;;;;;;;20.20;54.24;101854.13;5038100;28;19917;-71
2023/05/12 12:20:48;;;;;;;;;;;;;;;20.21;54.50;101853.97;5048312;28;19917;-71
2023/05/12 12:23:14;;;;;;;;;;;;;;;20.23;54.32;101849.28;5051748;28;19928;-71
2023/05/12 12:25:39;;;;;;;;;;;;;;;20.26;54.40;101850.81;5050079;28;19921;-71
2023/05/12 12:28:04;;;;;;;;;;;;;;;20.27;54.17;101847.13;5053237;28;19955;-71